KFUL

Details ICAO KFUL (FUL)
Name Fullerton Muni
Region United States
Timezone America/Los_Angeles (UTC-8.0)
Plans Departing 155
Arriving 92
Stats Elevation 96 ft / 29 m (AMSL)
Location 33.872000° -117.980000°
Runways 1
Magnetic Variation 11.635° E
Sunrise 2021-01-16 14:57:42 UTC / 2021-01-16 06:57:42 Local
Sunset 2021-01-17 01:08:06 UTC / 2021-01-16 17:08:06 Local
Advertisement - Login to hide

Runways

ID Width Length Bearing (true/mag) Surface Threshold Overrun Markings Lighting
06 75 ft / 23 m 3,115 ft / 950 m 76.92° / 65.28° ASPHALT 427 ft / 130 m 0 ft / 0 m VISUAL EDGE THRESHOLD REIL-OMNI
24 75 ft / 23 m 3,115 ft / 950 m 256.92° / 245.29° ASPHALT 253 ft / 77 m 0 ft / 0 m APP EDGE THRESHOLD MALSR REIL-OMNI

Approach Navaids

Runway Type Ident Frequency Range Bearing (true/mag) Slope Elevation
24 LOC-LOC IFUL 108.90 MHz 18 nm / 33 km 256.92° / 245.29° - 84 ft / 26 m (AMSL)
24 DME IFUL 108.90 MHz 18 nm / 33 km - - 96 ft / 29 m (AMSL)

Map

Weather


0- 5 10 15 20 25 30 35+ Temperature / °C

Clouds and Precipitation
Forecast for 2021-01-16 12:00 UTC. Updated 6 hours ago

Ground ~20,000 ft ~40,000 ft Winds

METAR

KFUL 161453Z 00000KT 10SM CLR 11/01 A2997 RMK AO2 SLP146 T01060006 53001

TAF

Not found

Frequencies

Unicom 122.95 MHz UNICOM
Recorded 125.05 MHz ATIS
Unicom 119.10 MHz CTAF
Approach 124.65 MHz SOCAL APP/DEP
Ground 121.80 MHz
Tower 119.10 MHz
Warning: Do not use this data for real-world aviation or navigation. No guarantee of current accuracy is given.